createdAt,value
2022-07-29T00:01:19.159Z,27.27
2022-07-29T00:03:47.688Z,26.89
2022-07-29T00:06:15.623Z,27.47
2022-07-29T00:08:42.886Z,27.38
2022-07-29T00:11:10.335Z,26.54
2022-07-29T00:13:37.597Z,26.35
2022-07-29T00:16:05.364Z,26.92
2022-07-29T00:18:33.252Z,27.04
2022-07-29T00:21:01.025Z,26.93
2022-07-29T00:23:28.295Z,26.95
2022-07-29T00:25:55.630Z,27.11
2022-07-29T00:28:22.844Z,27.32
2022-07-29T00:30:50.271Z,26.94
2022-07-29T00:33:17.658Z,26.88
2022-07-29T00:35:44.965Z,27.05
2022-07-29T00:38:12.900Z,26.99
2022-07-29T00:40:40.660Z,26.84
2022-07-29T00:43:12.224Z,26.65
2022-07-29T00:45:39.579Z,27.27
2022-07-29T00:48:08.012Z,27.04
2022-07-29T00:50:35.957Z,26.84
2022-07-29T00:53:04.385Z,26.89
2022-07-29T00:55:31.749Z,27.03
2022-07-29T00:57:59.555Z,26.60
2022-07-29T01:00:28.014Z,26.33
2022-07-29T01:02:55.425Z,26.89
2022-07-29T01:05:23.386Z,26.60
2022-07-29T01:07:53.708Z,26.66
2022-07-29T01:10:22.229Z,26.86
2022-07-29T01:12:50.651Z,27.12
2022-07-29T01:15:18.269Z,26.71
2022-07-29T01:17:52.732Z,26.89
2022-07-29T01:20:31.581Z,26.94
2022-07-29T01:23:08.467Z,26.69
2022-07-29T01:25:45.316Z,26.83
2022-07-29T01:28:31.485Z,26.83
2022-07-29T01:31:01.534Z,27.02
2022-07-29T01:33:49.499Z,26.81
2022-07-29T01:36:40.217Z,27.11
2022-07-29T01:39:19.896Z,26.63
2022-07-29T01:42:16.989Z,26.66
2022-07-29T01:44:52.236Z,26.80
2022-07-29T01:47:21.738Z,26.58
2022-07-29T01:49:52.106Z,26.55
2022-07-29T01:52:32.151Z,26.45
2022-07-29T01:55:00.400Z,26.42
2022-07-29T01:57:29.500Z,26.24
2022-07-29T01:59:58.220Z,26.27
2022-07-29T02:02:25.794Z,26.59
2022-07-29T02:04:53.552Z,26.52
2022-07-29T02:07:22.300Z,26.62
2022-07-29T02:09:51.538Z,26.21
2022-07-29T02:12:20.454Z,26.40
2022-07-29T02:14:52.613Z,25.98
2022-07-29T02:17:26.045Z,25.71
2022-07-29T02:19:56.450Z,25.95
2022-07-29T02:22:25.187Z,26.00
2022-07-29T02:24:52.766Z,26.18
2022-07-29T02:27:20.981Z,26.48
2022-07-29T02:29:50.004Z,26.12
2022-07-29T02:32:18.331Z,26.01
2022-07-29T02:34:46.081Z,25.71
2022-07-29T02:37:13.966Z,25.84
2022-07-29T02:39:43.328Z,25.60
2022-07-29T02:42:12.899Z,25.85
2022-07-29T02:44:40.449Z,25.63
2022-07-29T02:47:41.292Z,25.17
2022-07-29T02:50:23.699Z,25.14
2022-07-29T02:52:58.457Z,25.27
2022-07-29T02:55:38.146Z,25.23
2022-07-29T02:58:16.793Z,25.20
2022-07-29T03:00:45.839Z,25.20
2022-07-29T03:03:14.264Z,25.07
2022-07-29T03:05:41.619Z,25.38
2022-07-29T03:08:11.522Z,25.25
2022-07-29T03:10:40.526Z,25.30
2022-07-29T03:13:08.954Z,25.39
2022-07-29T03:15:36.988Z,25.27
2022-07-29T03:18:04.860Z,25.07
2022-07-29T03:20:32.317Z,24.82
2022-07-29T03:22:59.628Z,25.53
2022-07-29T03:25:28.303Z,25.41
2022-07-29T03:27:55.753Z,24.98
2022-07-29T03:30:23.656Z,25.60
2022-07-29T03:32:52.274Z,25.64
2022-07-29T03:35:20.982Z,25.76
2022-07-29T03:37:48.456Z,26.04
2022-07-29T03:40:19.283Z,25.85
2022-07-29T03:42:46.962Z,26.08
2022-07-29T03:45:16.584Z,26.53
2022-07-29T03:47:51.162Z,26.29
2022-07-29T03:50:22.017Z,26.55
2022-07-29T03:52:49.401Z,26.67
2022-07-29T03:55:17.134Z,26.63
2022-07-29T03:57:45.597Z,26.26
2022-07-29T04:00:13.247Z,26.18
2022-07-29T04:02:41.086Z,25.89
2022-07-29T04:05:13.105Z,26.05
2022-07-29T04:07:40.785Z,26.23
2022-07-29T04:10:08.913Z,26.23
2022-07-29T04:12:36.270Z,25.86
2022-07-29T04:15:05.006Z,26.28
2022-07-29T04:17:32.280Z,25.82
2022-07-29T04:19:59.638Z,25.87
2022-07-29T04:22:26.905Z,25.99
2022-07-29T04:24:54.708Z,26.30
2022-07-29T04:27:21.962Z,25.79
2022-07-29T04:29:56.596Z,25.56
2022-07-29T04:32:25.465Z,26.25
2022-07-29T04:34:52.881Z,25.93
2022-07-29T04:37:20.349Z,26.53
2022-07-29T04:39:47.592Z,26.28
2022-07-29T04:42:14.909Z,26.17
2022-07-29T04:44:44.625Z,26.30
2022-07-29T04:47:13.199Z,26.02
2022-07-29T04:49:40.554Z,26.45
2022-07-29T04:52:08.070Z,27.04
2022-07-29T04:54:36.466Z,26.82
2022-07-29T04:57:03.798Z,26.29
2022-07-29T04:59:31.061Z,26.43
2022-07-29T05:01:58.411Z,26.50
2022-07-29T05:04:25.831Z,26.28
2022-07-29T05:06:53.140Z,25.87
2022-07-29T05:09:20.437Z,25.83
2022-07-29T05:11:47.759Z,26.13
2022-07-29T05:14:15.321Z,26.06
2022-07-29T05:16:43.148Z,25.98
2022-07-29T05:19:14.178Z,25.79
2022-07-29T05:21:41.989Z,25.79
2022-07-29T05:24:09.382Z,26.13
2022-07-29T05:26:36.657Z,25.39
2022-07-29T05:29:04.199Z,26.23
2022-07-29T05:31:31.681Z,25.60
2022-07-29T05:33:58.985Z,25.18
2022-07-29T05:36:26.306Z,25.04
2022-07-29T05:38:53.587Z,25.12
2022-07-29T05:41:21.105Z,25.18
2022-07-29T05:43:48.390Z,25.00
2022-07-29T05:46:16.268Z,24.97
2022-07-29T05:48:43.622Z,24.76
2022-07-29T05:51:11.225Z,24.41
2022-07-29T05:53:38.726Z,24.82
2022-07-29T05:56:06.521Z,24.27
2022-07-29T05:58:34.132Z,24.35
2022-07-29T06:01:01.651Z,24.57
2022-07-29T06:03:29.258Z,24.50
2022-07-29T06:05:56.574Z,24.70
2022-07-29T06:08:24.536Z,24.53
2022-07-29T06:10:51.841Z,25.17
2022-07-29T06:13:19.151Z,24.85
2022-07-29T06:15:46.540Z,25.28
2022-07-29T06:18:14.424Z,25.00
2022-07-29T06:20:42.252Z,26.83
2022-07-29T06:23:10.953Z,27.89
2022-07-29T06:25:38.737Z,27.88
2022-07-29T06:28:06.082Z,26.93
2022-07-29T06:30:33.712Z,27.38
2022-07-29T06:33:02.438Z,26.45
2022-07-29T06:35:38.626Z,26.43
2022-07-29T06:38:12.068Z,26.77
2022-07-29T06:41:03.749Z,26.98
2022-07-29T06:43:33.172Z,27.61
2022-07-29T06:46:04.524Z,28.04
2022-07-29T06:48:32.221Z,28.17
2022-07-29T06:51:00.524Z,27.85
2022-07-29T06:53:28.912Z,26.79
2022-07-29T06:55:56.230Z,27.64
2022-07-29T06:58:23.664Z,26.40
2022-07-29T07:00:57.009Z,26.65
2022-07-29T07:03:24.958Z,26.91
2022-07-29T07:05:52.974Z,28.01
2022-07-29T07:08:20.564Z,27.71
2022-07-29T07:10:47.856Z,27.28
2022-07-29T07:13:18.155Z,27.29
2022-07-29T07:15:46.482Z,27.05
2022-07-29T07:18:13.793Z,27.18
2022-07-29T07:20:41.373Z,27.25
2022-07-29T07:23:08.654Z,26.63
2022-07-29T07:25:36.075Z,26.38
2022-07-29T07:28:03.523Z,26.38
2022-07-29T07:30:30.917Z,26.25
2022-07-29T07:32:58.193Z,25.79
2022-07-29T07:35:25.502Z,26.44
2022-07-29T07:37:52.757Z,26.00
2022-07-29T07:40:20.157Z,26.11
2022-07-29T07:42:47.401Z,26.24
2022-07-29T07:45:16.271Z,26.10
2022-07-29T07:47:44.143Z,25.68
2022-07-29T07:50:18.079Z,26.14
2022-07-29T07:52:51.117Z,26.19
2022-07-29T07:55:18.745Z,26.40
2022-07-29T07:57:46.620Z,26.22
2022-07-29T08:00:16.034Z,25.82
2022-07-29T08:02:44.194Z,25.69
2022-07-29T08:05:13.026Z,25.83
2022-07-29T08:07:40.532Z,25.70
2022-07-29T08:10:08.056Z,26.22
2022-07-29T08:12:35.351Z,26.15
2022-07-29T08:15:02.621Z,26.51
2022-07-29T08:17:30.216Z,26.67
2022-07-29T08:20:03.719Z,27.00
2022-07-29T08:22:30.937Z,26.49
2022-07-29T08:24:58.302Z,26.60
2022-07-29T08:27:42.984Z,26.71
2022-07-29T08:30:11.577Z,26.46
2022-07-29T08:32:55.440Z,26.64
2022-07-29T08:35:24.077Z,26.40
2022-07-29T08:37:51.684Z,26.74
2022-07-29T08:40:19.171Z,26.28
2022-07-29T08:42:46.467Z,26.32
2022-07-29T08:45:13.933Z,26.31
2022-07-29T08:47:41.237Z,27.01
2022-07-29T08:50:09.800Z,26.72
2022-07-29T08:52:38.462Z,26.25
2022-07-29T08:55:06.785Z,26.73
2022-07-29T08:57:34.884Z,26.76
2022-07-29T09:00:08.108Z,26.40
2022-07-29T09:02:46.929Z,26.76
2022-07-29T09:05:15.893Z,27.04
2022-07-29T09:07:44.904Z,26.49
2022-07-29T09:10:12.625Z,26.66
2022-07-29T09:12:40.850Z,26.26
2022-07-29T09:15:08.426Z,26.28
2022-07-29T09:17:42.763Z,26.69
2022-07-29T09:20:11.801Z,26.42
2022-07-29T09:22:42.091Z,26.75
2022-07-29T09:25:12.679Z,26.65
2022-07-29T09:27:40.133Z,26.36
2022-07-29T09:30:11.596Z,26.51
2022-07-29T09:32:59.580Z,26.56
2022-07-29T09:35:27.559Z,26.92
2022-07-29T09:37:55.264Z,26.58
2022-07-29T09:40:23.999Z,26.46
2022-07-29T09:42:52.036Z,26.80
2022-07-29T09:45:29.695Z,27.37
2022-07-29T09:48:00.120Z,26.92
2022-07-29T09:50:54.947Z,26.62
2022-07-29T09:53:33.732Z,26.50
2022-07-29T09:56:08.411Z,26.95
2022-07-29T09:58:37.116Z,27.23
2022-07-29T10:01:05.038Z,27.02
2022-07-29T10:03:32.583Z,27.10
2022-07-29T10:06:10.350Z,27.20
2022-07-29T10:08:38.488Z,27.15
2022-07-29T10:11:13.516Z,27.33
2022-07-29T10:13:41.819Z,26.91
2022-07-29T10:16:09.416Z,27.09
2022-07-29T10:18:39.329Z,27.01
2022-07-29T10:21:06.893Z,27.14
2022-07-29T10:23:46.392Z,27.35
2022-07-29T10:26:15.733Z,27.57
2022-07-29T10:28:42.985Z,26.65
2022-07-29T10:31:14.886Z,27.20
2022-07-29T10:33:54.509Z,27.30
2022-07-29T10:36:25.276Z,27.22
2022-07-29T10:39:11.465Z,27.44
2022-07-29T10:42:01.816Z,27.53
2022-07-29T10:44:31.529Z,27.84
2022-07-29T10:46:59.952Z,27.65
2022-07-29T10:49:30.609Z,27.46
2022-07-29T10:52:08.288Z,27.49
2022-07-29T10:54:48.579Z,27.52
2022-07-29T10:57:26.011Z,27.81
2022-07-29T11:00:11.121Z,27.49
2022-07-29T11:02:43.960Z,27.61
2022-07-29T11:05:13.804Z,27.49
2022-07-29T11:08:00.970Z,28.13
2022-07-29T11:10:31.318Z,28.18
2022-07-29T11:12:59.447Z,27.92
2022-07-29T11:15:28.554Z,27.86
2022-07-29T11:17:59.553Z,27.96
2022-07-29T11:20:35.015Z,28.09
2022-07-29T11:23:27.774Z,27.73
2022-07-29T11:26:23.004Z,28.23
2022-07-29T11:28:50.836Z,28.42
2022-07-29T11:31:38.274Z,28.43
2022-07-29T11:34:28.078Z,28.02
2022-07-29T11:37:15.087Z,28.37
2022-07-29T11:39:45.411Z,28.66
2022-07-29T11:42:32.681Z,28.83
2022-07-29T11:45:09.044Z,28.94
2022-07-29T11:47:54.958Z,28.81
2022-07-29T11:50:29.882Z,28.81
2022-07-29T11:52:57.764Z,29.04
2022-07-29T11:55:32.299Z,28.82
2022-07-29T11:58:03.526Z,29.38
2022-07-29T12:00:43.175Z,28.34
2022-07-29T12:03:12.115Z,28.81
2022-07-29T12:05:48.200Z,29.18
2022-07-29T12:08:20.925Z,29.18
2022-07-29T12:10:49.460Z,29.72
2022-07-29T12:13:17.948Z,29.28
2022-07-29T12:16:00.064Z,29.76
2022-07-29T12:18:27.969Z,29.43
2022-07-29T12:20:59.433Z,29.33
2022-07-29T12:23:34.661Z,29.18
2022-07-29T12:26:07.428Z,29.71
2022-07-29T12:28:38.990Z,29.02
2022-07-29T12:31:06.722Z,28.79
2022-07-29T12:33:36.191Z,29.27
2022-07-29T12:36:10.378Z,29.45
2022-07-29T12:38:41.697Z,29.04
2022-07-29T12:41:08.966Z,29.05
2022-07-29T12:43:36.387Z,29.24
2022-07-29T12:46:16.169Z,29.05
2022-07-29T12:48:44.699Z,29.51
2022-07-29T12:51:15.395Z,29.47
2022-07-29T12:54:02.580Z,28.65
2022-07-29T12:56:45.790Z,28.92
2022-07-29T12:59:18.695Z,28.84
2022-07-29T13:01:49.626Z,28.80
2022-07-29T13:04:46.234Z,28.79
2022-07-29T13:07:15.335Z,28.62
2022-07-29T13:09:44.197Z,28.56
2022-07-29T13:12:12.624Z,29.05
2022-07-29T13:14:41.514Z,28.94
2022-07-29T13:17:14.887Z,28.26
2022-07-29T13:19:49.477Z,28.45
2022-07-29T13:22:21.169Z,28.94
2022-07-29T13:24:51.569Z,29.25
2022-07-29T13:27:20.363Z,28.88
2022-07-29T13:29:47.879Z,28.87
2022-07-29T13:32:15.253Z,28.77
2022-07-29T13:34:42.561Z,28.94
2022-07-29T13:37:09.934Z,28.93
2022-07-29T13:39:38.446Z,28.88
2022-07-29T13:42:10.525Z,29.24
2022-07-29T13:44:38.384Z,28.51
2022-07-29T13:47:05.810Z,28.50
2022-07-29T13:49:33.093Z,28.56
2022-07-29T13:52:00.948Z,29.19
2022-07-29T13:54:28.565Z,29.08
2022-07-29T13:56:55.853Z,29.36
2022-07-29T13:59:23.151Z,29.15
2022-07-29T14:01:50.489Z,28.53
2022-07-29T14:04:17.930Z,27.67
2022-07-29T14:06:45.253Z,27.85
2022-07-29T14:09:12.745Z,27.23
2022-07-29T14:11:40.758Z,27.07
2022-07-29T14:14:08.301Z,26.44
2022-07-29T14:16:39.156Z,26.37
2022-07-29T14:19:09.744Z,26.23
2022-07-29T14:21:36.998Z,26.02
2022-07-29T14:24:17.885Z,25.75
2022-07-29T14:26:49.242Z,25.31
2022-07-29T14:29:16.521Z,26.00
2022-07-29T14:31:44.870Z,25.62
2022-07-29T14:34:12.218Z,25.47
2022-07-29T14:36:39.601Z,25.21
2022-07-29T14:39:06.800Z,25.46
2022-07-29T14:41:36.284Z,25.29
2022-07-29T14:44:03.762Z,24.96
2022-07-29T14:46:31.044Z,24.88
2022-07-29T14:48:58.545Z,27.82
2022-07-29T14:51:25.830Z,28.97
2022-07-29T14:54:00.135Z,28.33
2022-07-29T14:56:36.961Z,27.62
2022-07-29T14:59:05.161Z,28.53
2022-07-29T15:01:32.420Z,28.19
2022-07-29T15:04:00.036Z,28.63
2022-07-29T15:06:27.608Z,28.41
2022-07-29T15:08:55.062Z,28.67
2022-07-29T15:11:22.301Z,28.53
2022-07-29T15:13:49.651Z,28.68
2022-07-29T15:16:17.645Z,28.52
2022-07-29T15:18:45.037Z,28.71
2022-07-29T15:21:12.684Z,28.43
2022-07-29T15:23:40.101Z,28.64
2022-07-29T15:26:07.327Z,28.72
2022-07-29T15:28:34.737Z,28.71
2022-07-29T15:31:01.976Z,28.58
2022-07-29T15:33:29.307Z,28.69
2022-07-29T15:35:57.202Z,28.55
2022-07-29T15:38:28.566Z,28.98
2022-07-29T15:40:56.993Z,28.79
2022-07-29T15:43:24.290Z,28.54
2022-07-29T15:46:12.343Z,28.66
2022-07-29T15:48:40.548Z,29.08
2022-07-29T15:51:07.884Z,28.79
2022-07-29T15:53:35.442Z,29.08
2022-07-29T15:56:03.034Z,29.05
2022-07-29T15:58:31.102Z,28.90
2022-07-29T16:00:58.953Z,29.22
2022-07-29T16:03:26.368Z,28.83
2022-07-29T16:05:53.883Z,29.06
2022-07-29T16:08:21.324Z,28.92
2022-07-29T16:10:48.677Z,29.54
2022-07-29T16:13:17.002Z,29.42
2022-07-29T16:15:46.519Z,29.39
2022-07-29T16:18:30.655Z,29.30
2022-07-29T16:20:58.104Z,29.33
2022-07-29T16:23:25.584Z,28.95
2022-07-29T16:26:01.192Z,28.83
2022-07-29T16:28:30.112Z,29.02
2022-07-29T16:30:57.844Z,29.27
2022-07-29T16:33:25.206Z,28.81
2022-07-29T16:35:52.781Z,29.65
2022-07-29T16:38:20.249Z,29.10
2022-07-29T16:40:47.525Z,29.13
2022-07-29T16:43:15.051Z,28.60
2022-07-29T16:45:46.500Z,29.00
2022-07-29T16:48:14.457Z,28.86
2022-07-29T16:50:43.328Z,29.25
2022-07-29T16:53:11.145Z,29.08
2022-07-29T16:55:38.564Z,29.30
2022-07-29T16:58:09.982Z,29.37
2022-07-29T17:00:37.341Z,29.17
2022-07-29T17:03:05.602Z,29.12
2022-07-29T17:05:52.352Z,29.14
2022-07-29T17:08:20.533Z,28.96
2022-07-29T17:10:47.896Z,28.55
2022-07-29T17:13:15.206Z,29.08
2022-07-29T17:15:45.326Z,29.06
2022-07-29T17:18:13.241Z,29.32
2022-07-29T17:20:41.185Z,28.81
2022-07-29T17:23:08.561Z,29.43
2022-07-29T17:25:35.878Z,29.27
2022-07-29T17:28:03.413Z,29.23
2022-07-29T17:30:30.989Z,29.38
2022-07-29T17:32:58.284Z,28.86
2022-07-29T17:35:44.088Z,28.97
2022-07-29T17:38:11.693Z,29.24
2022-07-29T17:40:38.965Z,29.58
2022-07-29T17:43:09.330Z,29.27
2022-07-29T17:45:49.436Z,29.10
2022-07-29T17:48:18.988Z,29.22
2022-07-29T17:50:46.753Z,29.32
2022-07-29T17:53:16.013Z,29.42
2022-07-29T17:55:45.808Z,29.17
2022-07-29T17:58:13.307Z,29.68
2022-07-29T18:00:40.701Z,29.04
2022-07-29T18:03:08.523Z,29.28
2022-07-29T18:05:35.811Z,29.91
2022-07-29T18:08:03.167Z,29.51
2022-07-29T18:10:30.688Z,29.24
2022-07-29T18:12:58.172Z,29.02
2022-07-29T18:15:25.477Z,29.16
2022-07-29T18:17:57.630Z,29.17
2022-07-29T18:20:28.100Z,29.13
2022-07-29T18:22:55.471Z,29.22
2022-07-29T18:25:23.740Z,29.61
2022-07-29T18:27:51.493Z,29.28
2022-07-29T18:30:20.139Z,29.16
2022-07-29T18:33:11.363Z,29.32
2022-07-29T18:35:36.992Z,29.08
2022-07-29T18:38:06.063Z,29.53
2022-07-29T18:40:33.409Z,29.41
2022-07-29T18:43:00.734Z,29.13
2022-07-29T18:45:28.774Z,29.01
2022-07-29T18:47:57.037Z,29.38
2022-07-29T18:50:28.889Z,29.00
2022-07-29T18:52:58.908Z,29.38
2022-07-29T18:55:26.589Z,29.33
2022-07-29T18:57:56.636Z,29.32
2022-07-29T19:00:25.750Z,29.22
2022-07-29T19:02:53.247Z,29.64
2022-07-29T19:05:21.507Z,29.33
2022-07-29T19:07:48.997Z,29.51
2022-07-29T19:10:16.698Z,29.47
2022-07-29T19:12:44.330Z,29.90
2022-07-29T19:15:11.870Z,29.76
2022-07-29T19:17:39.159Z,29.89
2022-07-29T19:20:07.509Z,29.68
2022-07-29T19:22:34.937Z,29.75
2022-07-29T19:25:02.239Z,29.93
2022-07-29T19:27:29.500Z,29.49
2022-07-29T19:29:59.424Z,29.42
2022-07-29T19:32:26.933Z,29.46
2022-07-29T19:35:12.605Z,29.02
2022-07-29T19:37:40.141Z,29.66
2022-07-29T19:40:07.573Z,29.53
2022-07-29T19:42:35.099Z,29.56
2022-07-29T19:45:02.328Z,29.66
2022-07-29T19:47:29.803Z,29.61
2022-07-29T19:49:57.099Z,29.27
2022-07-29T19:52:24.397Z,29.29
2022-07-29T19:54:51.722Z,29.64
2022-07-29T19:57:19.275Z,29.28
2022-07-29T19:59:46.494Z,29.45
2022-07-29T20:02:13.909Z,29.54
2022-07-29T20:04:42.891Z,29.25
2022-07-29T20:07:10.197Z,29.43
2022-07-29T20:09:40.103Z,29.51
2022-07-29T20:12:11.115Z,29.50
2022-07-29T20:14:38.585Z,29.41
2022-07-29T20:17:06.106Z,29.00
2022-07-29T20:19:33.722Z,29.11
2022-07-29T20:22:01.014Z,29.17
2022-07-29T20:24:28.377Z,28.93
2022-07-29T20:26:55.693Z,28.82
2022-07-29T20:29:23.192Z,28.75
2022-07-29T20:31:53.306Z,29.27
2022-07-29T20:34:23.732Z,28.99
2022-07-29T20:36:50.987Z,29.04
2022-07-29T20:39:18.364Z,28.71
2022-07-29T20:41:45.749Z,28.75
2022-07-29T20:44:13.297Z,29.11
2022-07-29T20:46:40.928Z,28.61
2022-07-29T20:49:09.022Z,28.08
2022-07-29T20:51:43.852Z,26.26
2022-07-29T20:54:12.151Z,26.06
2022-07-29T20:56:39.677Z,25.69
2022-07-29T20:59:07.791Z,25.31
2022-07-29T21:01:35.745Z,25.77
2022-07-29T21:04:03.635Z,25.74
2022-07-29T21:06:31.273Z,26.10
2022-07-29T21:08:59.846Z,26.04
2022-07-29T21:11:43.219Z,25.81
2022-07-29T21:14:38.317Z,24.98
2022-07-29T21:17:07.312Z,25.44
2022-07-29T21:19:34.931Z,25.49
2022-07-29T21:22:02.854Z,25.59
2022-07-29T21:24:30.112Z,25.67
2022-07-29T21:27:21.707Z,26.15
2022-07-29T21:29:49.737Z,25.39
2022-07-29T21:32:27.677Z,25.25
2022-07-29T21:34:58.174Z,25.40
2022-07-29T21:37:25.448Z,25.05
2022-07-29T21:39:52.765Z,26.11
2022-07-29T21:42:19.979Z,25.88
2022-07-29T21:44:47.443Z,26.15
2022-07-29T21:47:14.691Z,25.40
2022-07-29T21:49:42.259Z,25.11
2022-07-29T21:52:09.581Z,24.78
2022-07-29T21:54:36.995Z,24.55
2022-07-29T21:57:05.000Z,25.10
2022-07-29T21:59:32.823Z,25.30
2022-07-29T22:02:03.560Z,25.16
2022-07-29T22:04:31.283Z,24.50
2022-07-29T22:06:58.993Z,24.98
2022-07-29T22:09:26.649Z,24.60
2022-07-29T22:11:54.886Z,24.52
2022-07-29T22:14:22.457Z,24.72
2022-07-29T22:16:49.955Z,25.31
2022-07-29T22:19:17.439Z,24.93
2022-07-29T22:21:44.901Z,24.83
2022-07-29T22:24:12.275Z,24.42
2022-07-29T22:26:39.606Z,24.63
2022-07-29T22:29:06.937Z,24.37
2022-07-29T22:31:34.211Z,24.60
2022-07-29T22:34:01.565Z,24.65
2022-07-29T22:36:28.856Z,24.79
2022-07-29T22:38:56.243Z,24.63
2022-07-29T22:41:23.486Z,24.49
2022-07-29T22:43:50.841Z,24.50
2022-07-29T22:46:18.166Z,24.38
2022-07-29T22:48:45.698Z,24.21
2022-07-29T22:51:14.168Z,24.56
2022-07-29T22:53:41.512Z,24.12
2022-07-29T22:56:08.727Z,24.59
2022-07-29T22:58:36.409Z,24.47
2022-07-29T23:01:03.681Z,24.82
2022-07-29T23:03:31.048Z,25.11
2022-07-29T23:05:58.430Z,25.00
2022-07-29T23:08:25.760Z,24.35
2022-07-29T23:10:53.021Z,24.73
2022-07-29T23:13:20.458Z,24.74
2022-07-29T23:15:48.038Z,24.88
2022-07-29T23:18:15.478Z,24.84
2022-07-29T23:20:43.927Z,24.85
2022-07-29T23:23:11.321Z,25.07
2022-07-29T23:25:38.554Z,25.08
2022-07-29T23:28:11.683Z,24.86
2022-07-29T23:30:43.541Z,25.16
2022-07-29T23:33:10.976Z,24.98
2022-07-29T23:35:38.221Z,24.91
2022-07-29T23:38:05.542Z,25.50
2022-07-29T23:40:32.938Z,25.39
2022-07-29T23:43:00.245Z,25.14
2022-07-29T23:45:40.043Z,24.91
2022-07-29T23:48:12.034Z,25.25
2022-07-29T23:50:39.268Z,24.84
2022-07-29T23:53:06.528Z,24.94
2022-07-29T23:55:37.879Z,25.26
2022-07-29T23:58:06.518Z,25.28
